Kezdőlap
METAR-TAF:

METAR-TAF

Repülőterek :

Tébessa, Algéria

földrajzi szélesség: 35-29N, földrajzi hosszúság: 008-08E, magasság: 813 m

Jelenlegi meteorológiai megfigyelések

A jelentés 1 órával és 8 perccel ezelõtt készült, 13:00 UTC
Nyugati szél 4 kt
Hőmérséklet 30°C
Páratartalom 10%
Légköri nyomás 1015 hPa
Látótávolság 10 km, vagy több
felhőtlen 1500 m magasságban, és nincs gomolyfelhõ

METAR: DABS 301300Z 28004KT CAVOK 30/M05 Q1015

Idő: 15:08 (14:08 UTC)

Előrejelzés

A jelentés 3 órával és 8 perccel ezelõtt készült, 11:00 UTC
Az előrejelzés 30-én 12 óra UTC és 31-én 12 óra UTC között érvényes
Nyugati szél 8 kt
Látótávolság 10 km, vagy több
felhőtlen 1500 m magasságban, és nincs gomolyfelhõ
30-én 12 óra UTC és 30-én 18 óra UTC között ideiglenes
Északnyugati szél 12 kt

TAF: DABS 301100Z 3012/3112 26008KT CAVOK TEMPO 3012/3018 31012KT

Meteorológiai megfigyelések és előrejelzések több, mint 4000 repülőtéren (METAR és TAF jelentéseket).

A térképen piros és sárga pontok jelzik az elérhető meteorológiai állomásokat.

Mozgassa az egeret a pont fölött, hogy megjelenjen az állomás neve.

Azután kattintson az időjárási megfigyelések és előrejelzések megtekintéséhez.

A térkép megváltoztatása: kattintson a fekete keresztel jelölt zöld gombra ráközelítéshez, a vonallal jelölt zöld gombra távolításhoz, vagy a zöld nyilakra a szomszédos térképek eléréséhez.


METAR-TAF: